Time,TemperatureF,DewpointF,PressureIn,WindDirection,WindDirectionDegrees,WindSpeedMPH,WindSpeedGustMPH,Humidity,HourlyPrecipIn,Conditions,Clouds,dailyrainin,SoftwareType,DateUTC
2013-02-12 00:00:00,28.6,24.4,30.14,WSW,257,9.0,14.0,84,0.00,,---,0.00,VWS V14.01,2013-02-12 06:00:00,
2013-02-12 00:02:00,28.3,24.7,30.15,WSW,247,3.0,10.0,86,0.00,,---,0.00,VWS V14.01,2013-02-12 06:02:00,
2013-02-12 00:07:00,28.3,24.7,30.15,WSW,248,6.0,10.0,86,0.00,,---,0.00,VWS V14.01,2013-02-12 06:07:00,
2013-02-12 00:12:00,28.2,24.8,30.14,WSW,252,9.0,10.0,87,0.00,,---,0.00,VWS V14.01,2013-02-12 06:12:00,
2013-02-12 00:17:00,28.2,24.8,30.15,WSW,258,7.0,10.0,87,0.00,,---,0.00,VWS V14.01,2013-02-12 06:17:00,
2013-02-12 00:22:00,28.3,24.7,30.15,WSW,258,9.0,11.0,86,0.00,,---,0.00,VWS V14.01,2013-02-12 06:22:00,
2013-02-12 00:27:00,28.3,24.7,30.15,WSW,258,9.0,11.0,86,0.00,,---,0.00,VWS V14.01,2013-02-12 06:27:00,
2013-02-12 00:30:00,28.4,24.2,30.14,West,263,7.0,15.0,84,0.00,,---,0.00,VWS V14.01,2013-02-12 06:30:00,
2013-02-12 00:32:00,28.5,24.6,30.14,West,269,11.0,11.0,85,0.00,,---,0.00,VWS V14.01,2013-02-12 06:32:00,
2013-02-12 00:37:00,28.6,24.7,30.14,West,260,10.0,13.0,85,0.00,,---,0.00,VWS V14.01,2013-02-12 06:37:00,
2013-02-12 00:42:00,28.7,24.5,30.14,West,263,9.0,13.0,84,0.00,,---,0.00,VWS V14.01,2013-02-12 06:42:00,
2013-02-12 00:47:00,28.7,24.5,30.14,West,263,10.0,14.0,84,0.00,,---,0.00,VWS V14.01,2013-02-12 06:47:00,
2013-02-12 00:52:00,28.7,24.5,30.14,West,279,9.0,14.0,84,0.00,,---,0.00,VWS V14.01,2013-02-12 06:52:00,
2013-02-12 00:57:00,28.6,24.4,30.14,West,273,11.0,14.0,84,0.00,,---,0.00,VWS V14.01,2013-02-12 06:57:00,
2013-02-12 01:00:00,28.1,24.2,30.15,WSW,255,7.0,10.0,85,0.00,,---,0.00,VWS V14.01,2013-02-12 07:00:00,
2013-02-12 01:02:00,28.6,24.4,30.14,West,265,9.0,11.0,84,0.00,,---,0.00,VWS V14.01,2013-02-12 07:02:00,
2013-02-12 01:07:00,28.6,24.4,30.14,West,271,11.0,15.0,84,0.00,,---,0.00,VWS V14.01,2013-02-12 07:07:00,
2013-02-12 01:12:00,28.6,24.4,30.14,West,270,8.0,15.0,84,0.00,,---,0.00,VWS V14.01,2013-02-12 07:12:00,
2013-02-12 01:18:00,28.6,24.4,30.14,West,265,9.0,15.0,84,0.00,,---,0.00,VWS V14.01,2013-02-12 07:18:00,
2013-02-12 01:23:00,28.5,24.3,30.15,WSW,254,5.0,15.0,84,0.00,,---,0.00,VWS V14.01,2013-02-12 07:23:00,
2013-02-12 01:28:00,28.4,24.2,30.14,West,267,7.0,15.0,84,0.00,,---,0.00,VWS V14.01,2013-02-12 07:28:00,
2013-02-12 01:30:00,27.3,23.7,30.15,WSW,257,5.0,7.0,86,0.00,,---,0.00,VWS V14.01,2013-02-12 07:30:00,
2013-02-12 01:33:00,28.4,24.2,30.14,West,279,8.0,10.0,84,0.00,,---,0.00,VWS V14.01,2013-02-12 07:33:00,
2013-02-12 01:38:00,28.3,24.1,30.14,West,276,8.0,10.0,84,0.00,,---,0.00,VWS V14.01,2013-02-12 07:38:00,
2013-02-12 01:43:00,28.0,24.1,30.14,West,276,6.0,10.0,85,0.00,,---,0.00,VWS V14.01,2013-02-12 07:43:00,
2013-02-12 01:48:00,28.1,24.2,30.15,West,274,7.0,10.0,85,0.00,,---,0.00,VWS V14.01,2013-02-12 07:48:00,
2013-02-12 01:53:00,28.1,24.2,30.15,West,262,8.0,10.0,85,0.00,,---,0.00,VWS V14.01,2013-02-12 07:53:00,
2013-02-12 01:58:00,28.1,24.2,30.15,WSW,255,7.0,10.0,85,0.00,,---,0.00,VWS V14.01,2013-02-12 07:58:00,
2013-02-12 02:00:00,26.8,23.7,30.14,West,270,5.0,7.0,88,0.00,,---,0.00,VWS V14.01,2013-02-12 08:00:00,
2013-02-12 02:03:00,28.0,24.1,30.15,WSW,252,7.0,7.0,85,0.00,,---,0.00,VWS V14.01,2013-02-12 08:03:00,
2013-02-12 02:08:00,27.9,24.0,30.15,WSW,249,4.0,7.0,85,0.00,,---,0.00,VWS V14.01,2013-02-12 08:08:00,
2013-02-12 02:13:00,27.8,23.9,30.15,WSW,240,4.0,7.0,85,0.00,,---,0.00,VWS V14.01,2013-02-12 08:13:00,
2013-02-12 02:18:00,27.6,24.0,30.15,WSW,245,5.0,7.0,86,0.00,,---,0.00,VWS V14.01,2013-02-12 08:18:00,
2013-02-12 02:23:00,27.4,23.8,30.15,WSW,252,5.0,7.0,86,0.00,,---,0.00,VWS V14.01,2013-02-12 08:23:00,
2013-02-12 02:29:00,27.3,23.7,30.15,West,267,4.0,5.0,86,0.00,,---,0.00,VWS V14.01,2013-02-12 08:29:00,
2013-02-12 02:30:00,26.8,24.0,30.14,West,263,7.0,7.0,89,0.00,,---,0.00,VWS V14.01,2013-02-12 08:30:00,
2013-02-12 02:34:00,27.2,23.9,30.15,WSW,253,2.0,5.0,87,0.00,,---,0.00,VWS V14.01,2013-02-12 08:34:00,
2013-02-12 02:39:00,27.2,23.9,30.14,WSW,255,3.0,5.0,87,0.00,,---,0.00,VWS V14.01,2013-02-12 08:39:00,
2013-02-12 02:44:00,27.1,23.8,30.14,West,259,4.0,5.0,87,0.00,,---,0.00,VWS V14.01,2013-02-12 08:44:00,
2013-02-12 02:49:00,27.0,23.9,30.15,West,261,6.0,6.0,88,0.00,,---,0.00,VWS V14.01,2013-02-12 08:49:00,
2013-02-12 02:54:00,27.0,23.9,30.14,West,269,5.0,7.0,88,0.00,,---,0.00,VWS V14.01,2013-02-12 08:54:00,
2013-02-12 02:59:00,26.8,23.7,30.15,West,273,5.0,5.0,88,0.00,,---,0.00,VWS V14.01,2013-02-12 08:59:00,
2013-02-12 03:00:00,26.6,23.5,30.14,West,271,2.0,8.0,88,0.00,,---,0.00,VWS V14.01,2013-02-12 09:00:00,
2013-02-12 03:04:00,26.7,23.6,30.15,West,266,5.0,7.0,88,0.00,,---,0.00,VWS V14.01,2013-02-12 09:04:00,
2013-02-12 03:09:00,26.8,23.7,30.15,West,259,5.0,7.0,88,0.00,,---,0.00,VWS V14.01,2013-02-12 09:09:00,
2013-02-12 03:14:00,26.9,23.8,30.15,WSW,258,4.0,7.0,88,0.00,,---,0.00,VWS V14.01,2013-02-12 09:14:00,
2013-02-12 03:19:00,26.9,23.8,30.14,WSW,255,6.0,7.0,88,0.00,,---,0.00,VWS V14.01,2013-02-12 09:19:00,
2013-02-12 03:24:00,26.8,23.7,30.14,West,267,6.0,7.0,88,0.00,,---,0.00,VWS V14.01,2013-02-12 09:24:00,
2013-02-12 03:29:00,26.7,23.9,30.14,West,265,6.0,7.0,89,0.00,,---,0.00,VWS V14.01,2013-02-12 09:29:00,
2013-02-12 03:30:00,26.4,23.3,30.15,WSW,250,2.0,5.0,88,0.00,,---,0.00,VWS V14.01,2013-02-12 09:30:00,
2013-02-12 03:34:00,26.8,23.7,30.14,West,262,5.0,7.0,88,0.00,,---,0.00,VWS V14.01,2013-02-12 09:34:00,
2013-02-12 03:39:00,26.9,23.8,30.14,West,263,6.0,8.0,88,0.00,,---,0.00,VWS V14.01,2013-02-12 09:39:00,
2013-02-12 03:44:00,26.9,23.8,30.14,West,260,6.0,8.0,88,0.00,,---,0.00,VWS V14.01,2013-02-12 09:44:00,
2013-02-12 03:49:00,26.8,23.7,30.14,WSW,255,4.0,8.0,88,0.00,,---,0.00,VWS V14.01,2013-02-12 09:49:00,
2013-02-12 03:54:00,26.7,23.6,30.14,West,271,3.0,8.0,88,0.00,,---,0.00,VWS V14.01,2013-02-12 09:54:00,
2013-02-12 03:59:00,26.5,23.4,30.14,West,271,3.0,4.0,88,0.00,,---,0.00,VWS V14.01,2013-02-12 09:59:00,
2013-02-12 04:00:00,26.7,23.9,30.14,West,263,5.0,6.0,89,0.00,,---,0.00,VWS V14.01,2013-02-12 10:00:00,
2013-02-12 04:04:00,26.4,23.3,30.14,West,271,2.0,4.0,88,0.00,,---,0.00,VWS V14.01,2013-02-12 10:04:00,
2013-02-12 04:09:00,26.3,23.2,30.14,WSW,255,2.0,5.0,88,0.00,,---,0.00,VWS V14.01,2013-02-12 10:09:00,
2013-02-12 04:15:00,26.4,23.3,30.14,West,260,2.0,5.0,88,0.00,,---,0.00,VWS V14.01,2013-02-12 10:15:00,
2013-02-12 04:20:00,26.4,23.3,30.14,West,260,4.0,5.0,88,0.00,,---,0.00,VWS V14.01,2013-02-12 10:20:00,
2013-02-12 04:25:00,26.4,23.6,30.14,WSW,257,1.0,5.0,89,0.00,,---,0.00,VWS V14.01,2013-02-12 10:25:00,
2013-02-12 04:30:00,26.4,23.3,30.15,WSW,250,2.0,4.0,88,0.00,,---,0.00,VWS V14.01,2013-02-12 10:30:00,
2013-02-12 04:35:00,26.4,23.6,30.15,WSW,250,3.0,4.0,89,0.00,,---,0.00,VWS V14.01,2013-02-12 10:35:00,
2013-02-12 04:40:00,26.5,23.7,30.15,WSW,253,4.0,6.0,89,0.00,,---,0.00,VWS V14.01,2013-02-12 10:40:00,
2013-02-12 04:45:00,26.6,23.8,30.15,West,261,3.0,6.0,89,0.00,,---,0.00,VWS V14.01,2013-02-12 10:45:00,
2013-02-12 04:50:00,26.6,23.8,30.15,West,265,2.0,6.0,89,0.00,,---,0.00,VWS V14.01,2013-02-12 10:50:00,
2013-02-12 04:55:00,26.7,23.9,30.14,West,271,3.0,6.0,89,0.00,,---,0.00,VWS V14.01,2013-02-12 10:55:00,
2013-02-12 05:00:00,26.7,23.9,30.14,West,277,4.0,5.0,89,0.00,,---,0.00,VWS V14.01,2013-02-12 11:00:00,
2013-02-12 05:05:00,26.9,24.1,30.14,West,267,4.0,6.0,89,0.00,,---,0.00,VWS V14.01,2013-02-12 11:05:00,
2013-02-12 05:10:00,27.1,24.3,30.14,WNW,294,8.0,10.0,89,0.00,,---,0.00,VWS V14.01,2013-02-12 11:10:00,
2013-02-12 05:15:00,27.5,24.4,30.14,West,270,9.0,10.0,88,0.00,,---,0.00,VWS V14.01,2013-02-12 11:15:00,
2013-02-12 05:20:00,27.7,24.6,30.14,West,268,4.0,10.0,88,0.00,,---,0.00,VWS V14.01,2013-02-12 11:20:00,
2013-02-12 05:25:00,27.8,24.4,30.14,West,279,9.0,11.0,87,0.00,,---,0.00,VWS V14.01,2013-02-12 11:25:00,
2013-02-12 05:30:00,28.0,24.6,30.14,WNW,288,11.0,14.0,87,0.00,,---,0.00,VWS V14.01,2013-02-12 11:30:00,
2013-02-12 05:35:00,28.1,24.5,30.15,WNW,296,9.0,14.0,86,0.00,,---,0.00,VWS V14.01,2013-02-12 11:35:00,
2013-02-12 05:40:00,28.1,24.7,30.14,WNW,300,6.0,14.0,87,0.00,,---,0.00,VWS V14.01,2013-02-12 11:40:00,
2013-02-12 05:46:00,28.1,24.7,30.14,WNW,284,5.0,14.0,87,0.00,,---,0.00,VWS V14.01,2013-02-12 11:46:00,
2013-02-12 05:51:00,28.1,24.5,30.14,WNW,300,10.0,14.0,86,0.00,,---,0.00,VWS V14.01,2013-02-12 11:51:00,
2013-02-12 05:56:00,28.0,24.4,30.14,WNW,288,9.0,14.0,86,0.00,,---,0.00,VWS V14.01,2013-02-12 11:56:00,
2013-02-12 06:00:00,28.1,24.5,30.16,West,281,7.0,13.0,86,0.00,,---,0.00,VWS V14.01,2013-02-12 12:00:00,
2013-02-12 06:01:00,28.0,24.4,30.15,WNW,294,11.0,13.0,86,0.00,,---,0.00,VWS V14.01,2013-02-12 12:01:00,
2013-02-12 06:06:00,28.1,24.5,30.15,WNW,289,9.0,13.0,86,0.00,,---,0.00,VWS V14.01,2013-02-12 12:06:00,
2013-02-12 06:11:00,28.1,24.5,30.14,WNW,297,10.0,13.0,86,0.00,,---,0.00,VWS V14.01,2013-02-12 12:11:00,
2013-02-12 06:16:00,28.1,24.5,30.14,West,280,9.0,13.0,86,0.00,,---,0.00,VWS V14.01,2013-02-12 12:16:00,
2013-02-12 06:21:00,28.2,24.6,30.14,West,267,8.0,13.0,86,0.00,,---,0.00,VWS V14.01,2013-02-12 12:21:00,
2013-02-12 06:26:00,28.1,24.2,30.14,West,267,8.0,13.0,85,0.00,,---,0.00,VWS V14.01,2013-02-12 12:26:00,
2013-02-12 06:30:00,28.1,24.5,30.15,WNW,301,9.0,16.0,86,0.00,,---,0.00,VWS V14.01,2013-02-12 12:30:00,
2013-02-12 06:31:00,28.2,24.6,30.14,WSW,242,6.0,8.0,86,0.00,,---,0.00,VWS V14.01,2013-02-12 12:31:00,
2013-02-12 06:36:00,28.2,24.6,30.15,WSW,258,8.0,11.0,86,0.00,,---,0.00,VWS V14.01,2013-02-12 12:36:00,
2013-02-12 06:41:00,28.2,24.6,30.15,West,263,9.0,12.0,86,0.00,,---,0.00,VWS V14.01,2013-02-12 12:41:00,
2013-02-12 06:46:00,28.3,24.7,30.16,West,263,8.0,12.0,86,0.00,,---,0.00,VWS V14.01,2013-02-12 12:46:00,
2013-02-12 06:52:00,28.2,24.3,30.16,WNW,288,10.0,13.0,85,0.00,,---,0.00,VWS V14.01,2013-02-12 12:52:00,
2013-02-12 06:57:00,28.2,24.6,30.16,West,272,8.0,13.0,86,0.00,,---,0.00,VWS V14.01,2013-02-12 12:57:00,
2013-02-12 07:00:00,28.0,23.8,30.16,West,263,7.0,13.0,84,0.00,,---,0.00,VWS V14.01,2013-02-12 13:00:00,
2013-02-12 07:02:00,28.1,24.5,30.16,West,277,13.0,14.0,86,0.00,,---,0.00,VWS V14.01,2013-02-12 13:02:00,
2013-02-12 07:07:00,28.0,24.1,30.16,West,277,11.0,14.0,85,0.00,,---,0.00,VWS V14.01,2013-02-12 13:07:00,
2013-02-12 07:12:00,28.0,24.1,30.16,WNW,284,10.0,15.0,85,0.00,,---,0.00,VWS V14.01,2013-02-12 13:12:00,
2013-02-12 07:17:00,28.0,24.1,30.17,West,272,11.0,16.0,85,0.00,,---,0.00,VWS V14.01,2013-02-12 13:17:00,
2013-02-12 07:22:00,28.1,24.2,30.16,WNW,286,8.0,16.0,85,0.00,,---,0.00,VWS V14.01,2013-02-12 13:22:00,
2013-02-12 07:27:00,28.1,24.5,30.15,WNW,286,10.0,16.0,86,0.00,,---,0.00,VWS V14.01,2013-02-12 13:27:00,
2013-02-12 07:30:00,28.4,24.2,30.16,West,267,7.0,13.0,84,0.00,,---,0.00,VWS V14.01,2013-02-12 13:30:00,
2013-02-12 07:32:00,28.1,24.5,30.15,WNW,286,9.0,10.0,86,0.00,,---,0.00,VWS V14.01,2013-02-12 13:32:00,
2013-02-12 07:37:00,28.0,24.1,30.15,WNW,292,9.0,11.0,85,0.00,,---,0.00,VWS V14.01,2013-02-12 13:37:00,
2013-02-12 07:42:00,28.0,24.4,30.15,WNW,282,8.0,11.0,86,0.00,,---,0.00,VWS V14.01,2013-02-12 13:42:00,
2013-02-12 07:47:00,28.0,24.1,30.16,West,274,9.0,13.0,85,0.00,,---,0.00,VWS V14.01,2013-02-12 13:47:00,
2013-02-12 07:52:00,28.0,24.1,30.16,West,273,9.0,13.0,85,0.00,,---,0.00,VWS V14.01,2013-02-12 13:52:00,
2013-02-12 07:57:00,28.0,23.8,30.16,West,279,9.0,13.0,84,0.00,,---,0.00,VWS V14.01,2013-02-12 13:57:00,
2013-02-12 08:00:00,28.9,24.7,30.17,West,273,8.0,14.0,84,0.00,,---,0.00,VWS V14.01,2013-02-12 14:00:00,
2013-02-12 08:03:00,28.1,24.2,30.17,West,261,10.0,12.0,85,0.00,,---,0.00,VWS V14.01,2013-02-12 14:03:00,
2013-02-12 08:08:00,28.1,24.2,30.16,West,268,9.0,12.0,85,0.00,,---,0.00,VWS V14.01,2013-02-12 14:08:00,
2013-02-12 08:13:00,28.2,24.3,30.17,West,271,10.0,13.0,85,0.00,,---,0.00,VWS V14.01,2013-02-12 14:13:00,
2013-02-12 08:18:00,28.2,24.0,30.16,West,269,7.0,13.0,84,0.00,,---,0.00,VWS V14.01,2013-02-12 14:18:00,
2013-02-12 08:23:00,28.3,24.7,30.16,West,281,8.0,13.0,86,0.00,,---,0.00,VWS V14.01,2013-02-12 14:23:00,
2013-02-12 08:28:00,28.4,24.2,30.16,West,271,7.0,13.0,84,0.00,,---,0.00,VWS V14.01,2013-02-12 14:28:00,
2013-02-12 08:30:00,29.6,25.1,30.17,West,278,9.0,15.0,83,0.00,,---,0.00,VWS V14.01,2013-02-12 14:30:00,
2013-02-12 08:33:00,28.4,24.5,30.16,West,275,9.0,10.0,85,0.00,,---,0.00,VWS V14.01,2013-02-12 14:33:00,
2013-02-12 08:38:00,28.5,24.3,30.16,West,260,8.0,10.0,84,0.00,,---,0.00,VWS V14.01,2013-02-12 14:38:00,
2013-02-12 08:43:00,28.5,24.3,30.16,West,274,6.0,10.0,84,0.00,,---,0.00,VWS V14.01,2013-02-12 14:43:00,
2013-02-12 08:48:00,28.8,24.9,30.16,West,279,11.0,11.0,85,0.00,,---,0.00,VWS V14.01,2013-02-12 14:48:00,
2013-02-12 08:53:00,28.8,24.6,30.17,West,278,11.0,14.0,84,0.00,,---,0.00,VWS V14.01,2013-02-12 14:53:00,
2013-02-12 08:58:00,28.9,24.7,30.17,West,275,10.0,10.0,84,0.00,,---,0.00,VWS V14.01,2013-02-12 14:58:00,
2013-02-12 09:00:00,30.3,25.5,30.17,WSW,244,5.0,12.0,82,0.00,,---,0.00,VWS V14.01,2013-02-12 15:00:00,
2013-02-12 09:03:00,28.9,24.4,30.18,West,263,9.0,13.0,83,0.00,,---,0.00,VWS V14.01,2013-02-12 15:03:00,
2013-02-12 09:08:00,29.0,24.8,30.18,WSW,252,12.0,14.0,84,0.00,,---,0.00,VWS V14.01,2013-02-12 15:08:00,
2013-02-12 09:13:00,29.2,24.7,30.18,WSW,258,10.0,15.0,83,0.00,,---,0.00,VWS V14.01,2013-02-12 15:13:00,
2013-02-12 09:18:00,29.3,24.8,30.17,West,272,14.0,15.0,83,0.00,,---,0.00,VWS V14.01,2013-02-12 15:18:00,
2013-02-12 09:24:00,29.6,25.1,30.17,West,267,13.0,15.0,83,0.00,,---,0.00,VWS V14.01,2013-02-12 15:24:00,
2013-02-12 09:29:00,29.6,25.1,30.17,West,268,7.0,9.0,83,0.00,,---,0.00,VWS V14.01,2013-02-12 15:29:00,
2013-02-12 09:30:00,30.7,25.3,30.14,West,275,8.0,13.0,80,0.00,,---,0.00,VWS V14.01,2013-02-12 15:30:00,
2013-02-12 09:34:00,29.7,25.2,30.17,WNW,285,9.0,12.0,83,0.00,,---,0.00,VWS V14.01,2013-02-12 15:34:00,
2013-02-12 09:39:00,29.6,25.1,30.17,West,272,5.0,12.0,83,0.00,,---,0.00,VWS V14.01,2013-02-12 15:39:00,
2013-02-12 09:44:00,29.7,25.2,30.17,WSW,244,6.0,12.0,83,0.00,,---,0.00,VWS V14.01,2013-02-12 15:44:00,
2013-02-12 09:49:00,29.7,24.9,30.17,SW,231,9.0,12.0,82,0.00,,---,0.00,VWS V14.01,2013-02-12 15:49:00,
2013-02-12 09:54:00,29.9,25.1,30.17,WSW,242,6.0,12.0,82,0.00,,---,0.00,VWS V14.01,2013-02-12 15:54:00,
2013-02-12 09:59:00,30.4,25.6,30.17,WSW,240,1.0,5.0,82,0.00,,---,0.00,VWS V14.01,2013-02-12 15:59:00,
2013-02-12 10:00:00,31.8,25.7,30.12,West,277,7.0,13.0,78,0.00,,---,0.00,VWS V14.01,2013-02-12 16:00:00,
2013-02-12 10:05:00,30.7,25.6,30.16,WSW,244,10.0,12.0,81,0.00,,---,0.00,VWS V14.01,2013-02-12 16:05:00,
2013-02-12 10:10:00,30.6,25.5,30.16,WSW,254,6.0,12.0,81,0.00,,---,0.00,VWS V14.01,2013-02-12 16:10:00,
2013-02-12 10:15:00,30.5,25.4,30.15,WSW,250,5.0,12.0,81,0.00,,---,0.00,VWS V14.01,2013-02-12 16:15:00,
2013-02-12 10:20:00,30.8,25.7,30.15,West,262,11.0,12.0,81,0.00,,---,0.00,VWS V14.01,2013-02-12 16:20:00,
2013-02-12 10:25:00,30.9,25.2,30.15,West,270,10.0,13.0,79,0.00,,---,0.00,VWS V14.01,2013-02-12 16:25:00,
2013-02-12 10:30:00,30.7,25.6,30.14,West,268,11.0,11.0,81,0.00,,---,0.00,VWS V14.01,2013-02-12 16:30:00,
2013-02-12 10:35:00,31.1,26.0,30.13,WNW,291,10.0,11.0,81,0.00,,---,0.00,VWS V14.01,2013-02-12 16:35:00,
2013-02-12 10:40:00,31.2,25.8,30.13,West,277,7.0,11.0,80,0.00,,---,0.00,VWS V14.01,2013-02-12 16:40:00,
2013-02-12 10:45:00,31.1,25.4,30.12,West,274,10.0,11.0,79,0.00,,---,0.00,VWS V14.01,2013-02-12 16:45:00,
2013-02-12 10:50:00,31.5,26.4,30.12,NW,305,9.0,13.0,81,0.00,,---,0.00,VWS V14.01,2013-02-12 16:50:00,
2013-02-12 10:55:00,31.9,26.1,30.12,WNW,282,9.0,13.0,79,0.00,,---,0.00,VWS V14.01,2013-02-12 16:55:00,
2013-02-12 11:00:00,31.9,26.1,30.12,West,280,9.0,11.0,79,0.00,,---,0.00,VWS V14.01,2013-02-12 17:00:00,
2013-02-12 11:05:00,32.3,26.5,30.12,NW,307,9.0,14.0,79,0.00,,---,0.00,VWS V14.01,2013-02-12 17:05:00,
2013-02-12 11:10:00,32.7,26.9,30.12,WNW,298,5.0,14.0,79,0.00,,---,0.00,VWS V14.01,2013-02-12 17:10:00,
2013-02-12 11:15:00,32.4,26.0,30.11,West,279,6.0,14.0,77,0.00,,---,0.00,VWS V14.01,2013-02-12 17:15:00,
2013-02-12 11:21:00,32.5,26.1,30.11,NW,306,9.0,14.0,77,0.00,,---,0.00,VWS V14.01,2013-02-12 17:21:00,
2013-02-12 11:26:00,32.6,26.2,30.11,NW,317,7.0,14.0,77,0.00,,---,0.00,VWS V14.01,2013-02-12 17:26:00,
2013-02-12 11:30:00,33.9,27.1,30.10,WNW,288,1.0,11.0,76,0.00,,---,0.00,VWS V14.01,2013-02-12 17:30:00,
2013-02-12 11:31:00,32.8,26.7,30.11,WNW,296,5.0,8.0,78,0.00,,---,0.00,VWS V14.01,2013-02-12 17:31:00,
2013-02-12 11:36:00,32.9,26.5,30.12,WNW,293,8.0,10.0,77,0.00,,---,0.00,VWS V14.01,2013-02-12 17:36:00,
2013-02-12 11:41:00,32.7,26.3,30.12,WNW,293,9.0,12.0,77,0.00,,---,0.00,VWS V14.01,2013-02-12 17:41:00,
2013-02-12 11:46:00,32.8,26.7,30.12,WNW,297,8.0,12.0,78,0.00,,---,0.00,VWS V14.01,2013-02-12 17:46:00,
2013-02-12 11:51:00,32.9,26.8,30.12,WNW,298,7.0,12.0,78,0.00,,---,0.00,VWS V14.01,2013-02-12 17:51:00,
2013-02-12 11:56:00,33.3,27.2,30.12,WNW,284,11.0,12.0,78,0.00,,---,0.00,VWS V14.01,2013-02-12 17:56:00,
2013-02-12 12:00:00,35.0,27.9,30.10,West,259,6.0,15.0,75,0.00,,---,0.00,VWS V14.01,2013-02-12 18:00:00,
2013-02-12 12:01:00,33.5,27.1,30.12,NNW,327,6.0,10.0,77,0.00,,---,0.00,VWS V14.01,2013-02-12 18:01:00,
2013-02-12 12:06:00,33.4,26.7,30.11,WNW,296,3.0,10.0,76,0.00,,---,0.00,VWS V14.01,2013-02-12 18:06:00,
2013-02-12 12:11:00,33.5,26.8,30.11,West,266,6.0,10.0,76,0.00,,---,0.00,VWS V14.01,2013-02-12 18:11:00,
2013-02-12 12:16:00,33.8,27.0,30.11,West,267,6.0,10.0,76,0.00,,---,0.00,VWS V14.01,2013-02-12 18:16:00,
2013-02-12 12:21:00,33.8,26.7,30.11,West,276,5.0,11.0,75,0.00,,---,0.00,VWS V14.01,2013-02-12 18:21:00,
2013-02-12 12:27:00,33.8,27.0,30.11,West,279,2.0,11.0,76,0.00,,---,0.00,VWS V14.01,2013-02-12 18:27:00,
2013-02-12 12:30:00,35.9,27.8,30.09,West,279,8.0,12.0,72,0.00,,---,0.00,VWS V14.01,2013-02-12 18:30:00,
2013-02-12 12:32:00,34.1,27.3,30.10,West,281,5.0,8.0,76,0.00,,---,0.00,VWS V14.01,2013-02-12 18:32:00,
2013-02-12 12:37:00,34.3,26.9,30.10,WNW,286,2.0,9.0,74,0.00,,---,0.00,VWS V14.01,2013-02-12 18:37:00,
2013-02-12 12:42:00,34.3,27.2,30.09,WNW,291,0.0,9.0,75,0.00,,---,0.00,VWS V14.01,2013-02-12 18:42:00,
2013-02-12 12:47:00,34.3,27.2,30.09,WNW,291,0.0,9.0,75,0.00,,---,0.00,VWS V14.01,2013-02-12 18:47:00,
2013-02-12 12:52:00,34.6,27.2,30.09,WNW,298,5.0,11.0,74,0.00,,---,0.00,VWS V14.01,2013-02-12 18:52:00,
2013-02-12 12:57:00,34.9,27.8,30.09,WSW,245,7.0,11.0,75,0.00,,---,0.00,VWS V14.01,2013-02-12 18:57:00,
2013-02-12 13:00:00,36.5,28.4,30.08,West,277,3.0,12.0,72,0.00,,---,0.00,VWS V14.01,2013-02-12 19:00:00,
2013-02-12 13:02:00,35.1,27.3,30.10,West,275,9.0,12.0,73,0.00,,---,0.00,VWS V14.01,2013-02-12 19:02:00,
2013-02-12 13:07:00,35.0,27.2,30.10,West,280,5.0,12.0,73,0.00,,---,0.00,VWS V14.01,2013-02-12 19:07:00,
2013-02-12 13:12:00,35.3,27.5,30.10,West,279,7.0,12.0,73,0.00,,---,0.00,VWS V14.01,2013-02-12 19:12:00,
2013-02-12 13:17:00,35.4,28.0,30.09,NW,307,3.0,12.0,74,0.00,,---,0.00,VWS V14.01,2013-02-12 19:17:00,
2013-02-12 13:22:00,35.5,28.0,30.09,West,263,6.0,12.0,74,0.00,,---,0.00,VWS V14.01,2013-02-12 19:22:00,
2013-02-12 13:27:00,35.9,28.4,30.09,West,259,7.0,12.0,74,0.00,,---,0.00,VWS V14.01,2013-02-12 19:27:00,
2013-02-12 13:30:00,37.5,27.9,30.07,SW,234,3.0,12.0,68,0.00,,---,0.00,VWS V14.01,2013-02-12 19:30:00,
2013-02-12 13:32:00,35.7,27.6,30.09,WSW,256,4.0,10.0,72,0.00,,---,0.00,VWS V14.01,2013-02-12 19:32:00,
2013-02-12 13:38:00,36.1,28.3,30.09,SW,232,2.0,10.0,73,0.00,,---,0.00,VWS V14.01,2013-02-12 19:38:00,
2013-02-12 13:43:00,36.4,28.6,30.08,West,277,6.0,12.0,73,0.00,,---,0.00,VWS V14.01,2013-02-12 19:43:00,
2013-02-12 13:48:00,36.4,27.9,30.08,West,265,1.0,12.0,71,0.00,,---,0.00,VWS V14.01,2013-02-12 19:48:00,
2013-02-12 13:53:00,36.4,27.6,30.08,WSW,256,6.0,12.0,70,0.00,,---,0.00,VWS V14.01,2013-02-12 19:53:00,
2013-02-12 13:58:00,36.5,28.0,30.08,WSW,254,4.0,12.0,71,0.00,,---,0.00,VWS V14.01,2013-02-12 19:58:00,
2013-02-12 14:00:00,37.7,27.8,30.07,WSW,251,6.0,9.0,67,0.00,,---,0.00,VWS V14.01,2013-02-12 20:00:00,
2013-02-12 14:03:00,36.6,28.1,30.08,WSW,237,4.0,6.0,71,0.00,,---,0.00,VWS V14.01,2013-02-12 20:03:00,
2013-02-12 14:08:00,37.1,28.2,30.08,WSW,248,9.0,12.0,70,0.00,,---,0.00,VWS V14.01,2013-02-12 20:08:00,
2013-02-12 14:13:00,37.0,28.5,30.08,WSW,246,7.0,12.0,71,0.00,,---,0.00,VWS V14.01,2013-02-12 20:13:00,
2013-02-12 14:18:00,37.0,28.1,30.08,SW,232,0.0,12.0,70,0.00,,---,0.00,VWS V14.01,2013-02-12 20:18:00,
2013-02-12 14:23:00,37.4,28.5,30.07,WSW,245,4.0,12.0,70,0.00,,---,0.00,VWS V14.01,2013-02-12 20:23:00,
2013-02-12 14:28:00,37.5,27.9,30.07,WSW,246,2.0,3.0,68,0.00,,---,0.00,VWS V14.01,2013-02-12 20:28:00,
2013-02-12 14:30:00,38.4,28.4,30.06,WSW,238,1.0,10.0,67,0.00,,---,0.00,VWS V14.01,2013-02-12 20:30:00,
2013-02-12 14:34:00,37.5,28.3,30.07,WSW,252,6.0,8.0,69,0.00,,---,0.00,VWS V14.01,2013-02-12 20:34:00,
2013-02-12 14:39:00,37.8,27.8,30.07,SW,234,3.0,8.0,67,0.00,,---,0.00,VWS V14.01,2013-02-12 20:39:00,
2013-02-12 14:44:00,38.0,28.0,30.07,SW,232,1.0,9.0,67,0.00,,---,0.00,VWS V14.01,2013-02-12 20:44:00,
2013-02-12 14:49:00,38.2,28.2,30.07,WSW,244,0.0,9.0,67,0.00,,---,0.00,VWS V14.01,2013-02-12 20:49:00,
2013-02-12 14:54:00,38.0,28.0,30.07,WSW,253,8.0,9.0,67,0.00,,---,0.00,VWS V14.01,2013-02-12 20:54:00,
2013-02-12 14:59:00,37.7,27.4,30.07,WSW,255,3.0,7.0,66,0.00,,---,0.00,VWS V14.01,2013-02-12 20:59:00,
2013-02-12 15:00:00,38.6,27.9,30.04,WSW,239,2.0,10.0,65,0.00,,---,0.00,VWS V14.01,2013-02-12 21:00:00,
2013-02-12 15:04:00,37.9,28.3,30.06,West,259,5.0,8.0,68,0.00,,---,0.00,VWS V14.01,2013-02-12 21:04:00,
2013-02-12 15:09:00,38.3,28.3,30.06,WSW,238,7.0,9.0,67,0.00,,---,0.00,VWS V14.01,2013-02-12 21:09:00,
2013-02-12 15:14:00,38.4,28.4,30.06,SW,236,6.0,9.0,67,0.00,,---,0.00,VWS V14.01,2013-02-12 21:14:00,
2013-02-12 15:19:00,38.6,27.9,30.06,WSW,244,3.0,10.0,65,0.00,,---,0.00,VWS V14.01,2013-02-12 21:19:00,
2013-02-12 15:24:00,38.3,28.0,30.06,SW,229,4.0,10.0,66,0.00,,---,0.00,VWS V14.01,2013-02-12 21:24:00,
2013-02-12 15:29:00,38.4,28.0,30.06,SW,233,4.0,6.0,66,0.00,,---,0.00,VWS V14.01,2013-02-12 21:29:00,
2013-02-12 15:30:00,38.4,27.3,30.03,West,269,5.0,8.0,64,0.00,,---,0.00,VWS V14.01,2013-02-12 21:30:00,
2013-02-12 15:34:00,38.7,28.3,30.06,SW,232,0.0,6.0,66,0.00,,---,0.00,VWS V14.01,2013-02-12 21:34:00,
2013-02-12 15:39:00,39.1,28.0,30.05,SW,219,0.0,6.0,64,0.00,,---,0.00,VWS V14.01,2013-02-12 21:39:00,
2013-02-12 15:44:00,39.3,28.5,30.05,WSW,238,3.0,10.0,65,0.00,,---,0.00,VWS V14.01,2013-02-12 21:44:00,
2013-02-12 15:49:00,39.4,28.6,30.05,WSW,238,5.0,10.0,65,0.00,,---,0.00,VWS V14.01,2013-02-12 21:49:00,
2013-02-12 15:54:00,38.9,28.1,30.05,WSW,241,8.0,10.0,65,0.00,,---,0.00,VWS V14.01,2013-02-12 21:54:00,
2013-02-12 16:00:00,38.6,28.2,30.04,WSW,240,5.0,5.0,66,0.00,,---,0.00,VWS V14.01,2013-02-12 22:00:00,
2013-02-12 16:05:00,38.4,27.7,30.04,WSW,242,6.0,7.0,65,0.00,,---,0.00,VWS V14.01,2013-02-12 22:05:00,
2013-02-12 16:10:00,38.2,28.2,30.04,WSW,238,3.0,7.0,67,0.00,,---,0.00,VWS V14.01,2013-02-12 22:10:00,
2013-02-12 16:15:00,38.0,27.3,30.04,WSW,248,2.0,8.0,65,0.00,,---,0.00,VWS V14.01,2013-02-12 22:15:00,
2013-02-12 16:20:00,38.2,27.5,30.03,WSW,246,1.0,8.0,65,0.00,,---,0.00,VWS V14.01,2013-02-12 22:20:00,
2013-02-12 16:25:00,38.4,27.7,30.03,SSW,197,0.0,8.0,65,0.00,,---,0.00,VWS V14.01,2013-02-12 22:25:00,
2013-02-12 16:30:00,38.2,27.5,30.03,West,261,2.0,5.0,65,0.00,,---,0.00,VWS V14.01,2013-02-12 22:30:00,
2013-02-12 16:35:00,38.1,27.4,30.02,WSW,258,0.0,5.0,65,0.00,,---,0.00,VWS V14.01,2013-02-12 22:35:00,
2013-02-12 16:40:00,38.2,27.9,30.02,WSW,255,3.0,5.0,66,0.00,,---,0.00,VWS V14.01,2013-02-12 22:40:00,
2013-02-12 16:45:00,38.0,26.9,30.02,West,272,2.0,5.0,64,0.00,,---,0.00,VWS V14.01,2013-02-12 22:45:00,
2013-02-12 16:50:00,37.8,27.5,30.02,West,273,3.0,5.0,66,0.00,,---,0.00,VWS V14.01,2013-02-12 22:50:00,
2013-02-12 16:55:00,37.4,27.1,30.02,West,272,2.0,5.0,66,0.00,,---,0.00,VWS V14.01,2013-02-12 22:55:00,
2013-02-12 17:00:00,37.1,27.2,30.01,WSW,252,2.0,4.0,67,0.00,,---,0.00,VWS V14.01,2013-02-12 23:00:00,
2013-02-12 17:05:00,37.1,27.9,30.01,WSW,252,2.0,4.0,69,0.00,,---,0.00,VWS V14.01,2013-02-12 23:05:00,
2013-02-12 17:11:00,36.9,27.7,30.01,WSW,251,1.0,4.0,69,0.00,,---,0.00,VWS V14.01,2013-02-12 23:11:00,
2013-02-12 17:16:00,36.8,28.0,30.01,WSW,250,0.0,4.0,70,0.00,,---,0.00,VWS V14.01,2013-02-12 23:16:00,
2013-02-12 17:21:00,36.5,27.7,30.01,WSW,249,1.0,4.0,70,0.00,,---,0.00,VWS V14.01,2013-02-12 23:21:00,
2013-02-12 17:26:00,36.3,27.5,30.02,WSW,248,0.0,4.0,70,0.00,,---,0.00,VWS V14.01,2013-02-12 23:26:00,
2013-02-12 17:30:00,34.0,27.2,30.01,South,178,0.0,3.0,76,0.00,,---,0.00,VWS V14.01,2013-02-12 23:30:00,
2013-02-12 17:31:00,36.1,27.6,30.01,WSW,248,0.0,1.0,71,0.00,,---,0.00,VWS V14.01,2013-02-12 23:31:00,
2013-02-12 17:36:00,35.9,27.4,30.02,WSW,248,1.0,1.0,71,0.00,,---,0.00,VWS V14.01,2013-02-12 23:36:00,
2013-02-12 17:41:00,35.7,27.6,30.02,WSW,248,0.0,2.0,72,0.00,,---,0.00,VWS V14.01,2013-02-12 23:41:00,
2013-02-12 17:46:00,35.5,27.4,30.01,SW,226,0.0,2.0,72,0.00,,---,0.00,VWS V14.01,2013-02-12 23:46:00,
2013-02-12 17:51:00,35.5,27.0,30.01,SW,221,0.0,2.0,71,0.00,,---,0.00,VWS V14.01,2013-02-12 23:51:00,
2013-02-12 17:56:00,35.4,27.3,30.01,SW,221,0.0,2.0,72,0.00,,---,0.00,VWS V14.01,2013-02-12 23:56:00,
2013-02-12 18:00:00,33.2,27.4,30.01,South,182,0.0,3.0,79,0.00,,---,0.00,VWS V14.01,2013-02-13 00:00:00,
2013-02-12 18:01:00,35.2,27.1,30.01,SW,221,0.0,2.0,72,0.00,,---,0.00,VWS V14.01,2013-02-13 00:01:00,
2013-02-12 18:06:00,35.1,27.0,30.01,SW,219,0.0,2.0,72,0.00,,---,0.00,VWS V14.01,2013-02-13 00:06:00,
2013-02-12 18:11:00,34.7,27.3,30.01,South,177,2.0,3.0,74,0.00,,---,0.00,VWS V14.01,2013-02-13 00:11:00,
2013-02-12 18:16:00,34.3,26.9,30.01,South,177,0.0,3.0,74,0.00,,---,0.00,VWS V14.01,2013-02-13 00:16:00,
2013-02-12 18:21:00,34.1,26.7,30.01,South,177,0.0,3.0,74,0.00,,---,0.00,VWS V14.01,2013-02-13 00:21:00,
2013-02-12 18:27:00,34.0,27.2,30.01,South,178,0.0,3.0,76,0.00,,---,0.00,VWS V14.01,2013-02-13 00:27:00,
2013-02-12 18:30:00,32.7,27.2,30.00,South,179,0.0,3.0,80,0.00,,---,0.00,VWS V14.01,2013-02-13 00:30:00,
2013-02-12 18:32:00,33.9,27.5,30.01,South,177,1.0,3.0,77,0.00,,---,0.00,VWS V14.01,2013-02-13 00:32:00,
2013-02-12 18:37:00,33.5,27.4,30.01,South,177,0.0,3.0,78,0.00,,---,0.00,VWS V14.01,2013-02-13 00:37:00,
2013-02-12 18:42:00,33.1,27.0,30.01,South,177,1.0,3.0,78,0.00,,---,0.00,VWS V14.01,2013-02-13 00:42:00,
2013-02-12 18:47:00,33.0,27.2,30.01,South,180,2.0,3.0,79,0.00,,---,0.00,VWS V14.01,2013-02-13 00:47:00,
2013-02-12 18:52:00,33.2,27.4,30.01,South,184,2.0,3.0,79,0.00,,---,0.00,VWS V14.01,2013-02-13 00:52:00,
2013-02-12 18:57:00,33.2,27.4,30.01,South,185,1.0,3.0,79,0.00,,---,0.00,VWS V14.01,2013-02-13 00:57:00,
2013-02-12 19:00:00,31.2,26.6,29.99,South,170,1.0,4.0,83,0.00,,---,0.00,VWS V14.01,2013-02-13 01:00:00,
2013-02-12 19:02:00,33.2,27.4,30.01,South,178,1.0,2.0,79,0.00,,---,0.00,VWS V14.01,2013-02-13 01:02:00,
2013-02-12 19:07:00,33.0,27.2,30.01,South,178,1.0,2.0,79,0.00,,---,0.00,VWS V14.01,2013-02-13 01:07:00,
2013-02-12 19:12:00,33.0,27.5,30.00,South,178,1.0,3.0,80,0.00,,---,0.00,VWS V14.01,2013-02-13 01:12:00,
2013-02-12 19:17:00,32.9,27.4,30.00,South,178,1.0,3.0,80,0.00,,---,0.00,VWS V14.01,2013-02-13 01:17:00,
2013-02-12 19:22:00,32.8,27.0,30.00,South,179,0.0,3.0,79,0.00,,---,0.00,VWS V14.01,2013-02-13 01:22:00,
2013-02-12 19:27:00,32.8,27.3,30.00,South,179,0.0,3.0,80,0.00,,---,0.00,VWS V14.01,2013-02-13 01:27:00,
2013-02-12 19:30:00,31.2,26.6,29.98,South,183,1.0,3.0,83,0.00,,---,0.00,VWS V14.01,2013-02-13 01:30:00,
2013-02-12 19:32:00,32.5,27.0,30.00,South,178,2.0,3.0,80,0.00,,---,0.00,VWS V14.01,2013-02-13 01:32:00,
2013-02-12 19:37:00,31.8,26.6,30.00,SSE,164,1.0,4.0,81,0.00,,---,0.00,VWS V14.01,2013-02-13 01:37:00,
2013-02-12 19:42:00,31.3,26.5,29.99,SSE,165,0.0,4.0,82,0.00,,---,0.00,VWS V14.01,2013-02-13 01:42:00,
2013-02-12 19:48:00,31.1,26.5,29.99,SSE,165,2.0,4.0,83,0.00,,---,0.00,VWS V14.01,2013-02-13 01:48:00,
2013-02-12 19:53:00,31.0,26.5,29.99,SSE,167,1.0,4.0,83,0.00,,---,0.00,VWS V14.01,2013-02-13 01:53:00,
2013-02-12 19:58:00,31.2,26.6,29.99,South,170,2.0,4.0,83,0.00,,---,0.00,VWS V14.01,2013-02-13 01:58:00,
2013-02-12 20:00:00,31.7,26.8,29.98,South,180,0.0,4.0,82,0.00,,---,0.00,VWS V14.01,2013-02-13 02:00:00,
2013-02-12 20:03:00,31.2,26.9,29.99,South,170,0.0,2.0,84,0.00,,---,0.00,VWS V14.01,2013-02-13 02:03:00,
2013-02-12 20:08:00,30.9,26.6,29.99,South,170,0.0,2.0,84,0.00,,---,0.00,VWS V14.01,2013-02-13 02:08:00,
2013-02-12 20:13:00,30.6,26.4,29.98,South,170,1.0,2.0,84,0.00,,---,0.00,VWS V14.01,2013-02-13 02:13:00,
2013-02-12 20:18:00,30.5,26.2,29.98,South,175,3.0,3.0,84,0.00,,---,0.00,VWS V14.01,2013-02-13 02:18:00,
2013-02-12 20:24:00,30.9,26.6,29.98,South,183,2.0,3.0,84,0.00,,---,0.00,VWS V14.01,2013-02-13 02:24:00,
2013-02-12 20:29:00,31.2,26.6,29.98,South,183,2.0,2.0,83,0.00,,---,0.00,VWS V14.01,2013-02-13 02:29:00,
2013-02-12 20:30:00,31.1,26.3,29.98,South,175,0.0,3.0,82,0.00,,---,0.00,VWS V14.01,2013-02-13 02:30:00,
2013-02-12 20:34:00,31.6,27.0,29.98,South,184,2.0,4.0,83,0.00,,---,0.00,VWS V14.01,2013-02-13 02:34:00,
2013-02-12 20:39:00,31.8,26.9,29.98,South,178,2.0,4.0,82,0.00,,---,0.00,VWS V14.01,2013-02-13 02:39:00,
2013-02-12 20:44:00,31.9,27.0,29.98,South,178,0.0,4.0,82,0.00,,---,0.00,VWS V14.01,2013-02-13 02:44:00,
2013-02-12 20:49:00,31.9,27.0,29.98,South,180,3.0,4.0,82,0.00,,---,0.00,VWS V14.01,2013-02-13 02:49:00,
2013-02-12 20:54:00,31.9,27.0,29.98,South,180,2.0,4.0,82,0.00,,---,0.00,VWS V14.01,2013-02-13 02:54:00,
2013-02-12 20:59:00,31.6,26.8,29.98,South,180,0.0,0.0,82,0.00,,---,0.00,VWS V14.01,2013-02-13 02:59:00,
2013-02-12 21:00:00,31.4,26.2,29.98,South,186,1.0,4.0,81,0.00,,---,0.00,VWS V14.01,2013-02-13 03:00:00,
2013-02-12 21:04:00,31.5,26.6,29.98,South,180,1.0,2.0,82,0.00,,---,0.00,VWS V14.01,2013-02-13 03:04:00,
2013-02-12 21:09:00,31.3,26.5,29.98,South,180,1.0,2.0,82,0.00,,---,0.00,VWS V14.01,2013-02-13 03:09:00,
2013-02-12 21:15:00,31.2,26.4,29.98,South,181,2.0,3.0,82,0.00,,---,0.00,VWS V14.01,2013-02-13 03:15:00,
2013-02-12 21:20:00,31.2,26.4,29.98,South,173,2.0,3.0,82,0.00,,---,0.00,VWS V14.01,2013-02-13 03:20:00,
2013-02-12 21:25:00,31.1,26.3,29.98,South,175,0.0,3.0,82,0.00,,---,0.00,VWS V14.01,2013-02-13 03:25:00,
2013-02-12 21:30:00,31.1,26.3,29.98,South,177,2.0,2.0,82,0.00,,---,0.00,VWS V14.01,2013-02-13 03:30:00,
2013-02-12 21:35:00,31.1,26.5,29.98,South,182,2.0,4.0,83,0.00,,---,0.00,VWS V14.01,2013-02-13 03:35:00,
2013-02-12 21:40:00,31.2,26.4,29.98,South,185,1.0,4.0,82,0.00,,---,0.00,VWS V14.01,2013-02-13 03:40:00,
2013-02-12 21:45:00,31.3,26.5,29.98,South,186,0.0,4.0,82,0.00,,---,0.00,VWS V14.01,2013-02-13 03:45:00,
2013-02-12 21:50:00,31.4,26.5,29.98,South,186,1.0,4.0,82,0.00,,---,0.00,VWS V14.01,2013-02-13 03:50:00,
2013-02-12 21:55:00,31.4,26.2,29.98,South,186,1.0,4.0,81,0.00,,---,0.00,VWS V14.01,2013-02-13 03:55:00,
2013-02-12 22:00:00,31.3,26.2,29.98,South,186,2.0,2.0,81,0.00,,---,0.00,VWS V14.01,2013-02-13 04:00:00,
2013-02-12 22:05:00,31.2,26.4,29.98,South,186,0.0,3.0,82,0.00,,---,0.00,VWS V14.01,2013-02-13 04:05:00,
2013-02-12 22:10:00,31.1,26.3,29.98,South,186,0.0,3.0,82,0.00,,---,0.00,VWS V14.01,2013-02-13 04:10:00,
2013-02-12 22:15:00,31.1,26.3,29.98,South,186,0.0,3.0,82,0.00,,---,0.00,VWS V14.01,2013-02-13 04:15:00,
2013-02-12 22:20:00,31.0,26.2,29.98,South,186,0.0,3.0,82,0.00,,---,0.00,VWS V14.01,2013-02-13 04:20:00,
2013-02-12 22:25:00,30.9,26.1,29.98,South,186,0.0,3.0,82,0.00,,---,0.00,VWS V14.01,2013-02-13 04:25:00,
2013-02-12 22:30:00,30.6,25.8,29.98,South,186,0.0,0.0,82,0.00,,---,0.00,VWS V14.01,2013-02-13 04:30:00,
2013-02-12 22:36:00,30.3,25.8,29.98,South,186,0.0,0.0,83,0.00,,---,0.00,VWS V14.01,2013-02-13 04:36:00,
2013-02-12 22:41:00,30.1,25.9,29.97,South,186,0.0,0.0,84,0.00,,---,0.00,VWS V14.01,2013-02-13 04:41:00,
2013-02-12 22:46:00,29.7,25.5,29.97,South,186,0.0,0.0,84,0.00,,---,0.00,VWS V14.01,2013-02-13 04:46:00,
2013-02-12 22:51:00,29.4,25.5,29.97,South,186,0.0,0.0,85,0.00,,---,0.00,VWS V14.01,2013-02-13 04:51:00,
2013-02-12 22:56:00,29.3,25.6,29.97,South,186,0.0,0.0,86,0.00,,---,0.00,VWS V14.01,2013-02-13 04:56:00,
2013-02-12 23:00:00,29.2,25.5,29.97,South,186,0.0,0.0,86,0.00,,---,0.00,VWS V14.01,2013-02-13 05:00:00,
2013-02-12 23:02:00,29.1,25.4,29.97,South,186,0.0,0.0,86,0.00,,---,0.00,VWS V14.01,2013-02-13 05:02:00,
2013-02-12 23:07:00,29.0,25.6,29.97,South,186,0.0,0.0,87,0.00,,---,0.00,VWS V14.01,2013-02-13 05:07:00,
2013-02-12 23:12:00,29.0,25.6,29.97,South,186,0.0,0.0,87,0.00,,---,0.00,VWS V14.01,2013-02-13 05:12:00,
2013-02-12 23:17:00,28.9,25.5,29.97,South,186,0.0,2.0,87,0.00,,---,0.00,VWS V14.01,2013-02-13 05:17:00,
2013-02-12 23:22:00,28.8,25.4,29.97,SSW,200,1.0,2.0,87,0.00,,---,0.00,VWS V14.01,2013-02-13 05:22:00,
2013-02-12 23:27:00,28.6,25.2,29.96,SSW,200,0.0,2.0,87,0.00,,---,0.00,VWS V14.01,2013-02-13 05:27:00,
2013-02-12 23:30:00,28.5,25.4,29.94,SW,230,1.0,4.0,88,0.00,,---,0.00,VWS V14.01,2013-02-13 05:30:00,
2013-02-12 23:32:00,28.5,25.4,29.96,SSW,200,0.0,2.0,88,0.00,,---,0.00,VWS V14.01,2013-02-13 05:32:00,
2013-02-12 23:37:00,28.6,25.5,29.96,SSW,200,1.0,2.0,88,0.00,,---,0.00,VWS V14.01,2013-02-13 05:37:00,
2013-02-12 23:43:00,28.6,25.5,29.96,SSW,200,0.0,2.0,88,0.00,,---,0.00,VWS V14.01,2013-02-13 05:43:00,
2013-02-12 23:48:00,28.5,25.7,29.96,SSW,200,0.0,2.0,89,0.00,,---,0.00,VWS V14.01,2013-02-13 05:48:00,
2013-02-12 23:53:00,28.5,25.7,29.96,SSW,200,0.0,2.0,89,0.00,,---,0.00,VWS V14.01,2013-02-13 05:53:00,
2013-02-12 23:58:00,28.6,25.8,29.96,SSW,200,0.0,2.0,89,0.00,,---,0.00,VWS V14.01,2013-02-13 05:58:00,